Colden, NY

2:05 AM EST on February 28, 2015 (GMT -0500)
KNYHOLLA3 | Change Station
CLOSE
Current Station
Personal Weather Station
Location: Colden, NY
Elevation: 1715 ft
Nearby Weather Stations
Active Advisory: Winter Storm Watch

Elev 1715 ft 42.63 °N, 78.63 °W | Updated 8 minutes ago

Clear
Clear
0.8 °F
Feels Like -10 °F
N
5.0
Wind Variable Wind from West
Gusts 7.0 mph

Today
High -- | Low -- °F
--% Chance of Precip.
Yesterday
High -- | Low -- °F
Precip. -- in
6:52 AM 6:02 PM
Waxing Gibbous, 75% visible
Pressure 30.73 in
Visibility 10.0 miles
Clouds Few 25000 ft
Windchill -10 °F
Dew Point -2 °F
Humidity 88%
Rainfall 0.00 in
Snow Depth Not available.
UV 0 out of 12
Pollen .40 out of 12
Air Quality Not available.
Flu Activity Not available.
METAR KBUF 280654Z 23007KT 10SM FEW250 M15/M18 A3067 RMK AO2 SLP404 T11501183

More Conditions Fewer Conditions

Pressure 30.73 in
Visibility 10.0 miles
Clouds Few 25000 ft
Windchill -10 °F
Dew Point -2 °F
Humidity 88%
Rainfall 0.00 in
Snow Depth Not available.
UV 0 out of 12
Pollen .40 out of 12
Air Quality Not available.
Flu Activity Not available.
METAR KBUF 280654Z 23007KT 10SM FEW250 M15/M18 A3067 RMK AO2 SLP404 T11501183

More Conditions Fewer Conditions

10-Day Weather Forecast

Almanac

Astronomy

Feb. 28, 2015 Rise Set
Actual Time
Civil Twilight
Nautical Twilight
Astronomical Twilight
Moon
Length of Visible Light
Length of Day
Tomorrow will be .
, % of the Moon is Illuminated

Today's Extremes

State Highs State Lows

Community

WunderPhotos

Upload Photos

1,800,979 photos uploaded!

WunderBlogs® & News

Nearby

Air Quality

  Air Quality AQ Index Pollutant
Not available.

Snow Depth

Station Depth Elevation

Earthquake Activity

City Distance Mag. Time & Date
Minimum magnitude displayed is 2.5.

Coastal Water Temperatures

Place Temperature

Nearby Weather Stations

Winter Storm Watch
Statement as of 10:09 PM EST on February 27, 2015

... Winter Storm Watch remains in effect from late Saturday night
through Monday morning...

* locations... Chautauqua... Cattaraugus... Allegany... Wyoming...
and southern Erie counties.

* Timing... from late Saturday night through early Monday morning.

* Hazards... heavy snow.

* Accumulations... potentially 7 inches or more of snow.

* Impacts... hazardous travel from snow covered roads and poor
visibility.

* Forecaster confidence... medium.

Precautionary/preparedness actions...

A Winter Storm Watch means that heavy snow and/or ice
accumulations are possible. If you are within the watch area...
remain alert to rapidly changing weather conditions.

Stay tuned to NOAA Weather Radio or your favorite source of
weather information for the latest updates. Additional details
can also be found at www.Weather.Gov/Buffalo.